createdAt,value
2022-12-19T00:01:16.386Z,69.44
2022-12-19T00:03:49.924Z,69.52
2022-12-19T00:06:22.439Z,69.58
2022-12-19T00:08:55.793Z,69.67
2022-12-19T00:11:28.508Z,69.65
2022-12-19T00:14:01.137Z,69.67
2022-12-19T00:16:33.206Z,69.70
2022-12-19T00:19:05.122Z,69.54
2022-12-19T00:21:37.926Z,69.47
2022-12-19T00:24:20.754Z,69.37
2022-12-19T00:26:53.320Z,69.35
2022-12-19T00:29:25.288Z,69.37
2022-12-19T00:31:56.940Z,69.41
2022-12-19T00:34:28.940Z,69.31
2022-12-19T00:37:00.691Z,69.46
2022-12-19T00:39:32.272Z,69.61
2022-12-19T00:42:03.963Z,69.48
2022-12-19T00:44:35.814Z,69.61
2022-12-19T00:47:07.657Z,69.36
2022-12-19T00:49:39.203Z,69.29
2022-12-19T00:52:13.817Z,69.44
2022-12-19T00:54:45.509Z,69.35
2022-12-19T00:57:17.912Z,69.28
2022-12-19T00:59:49.915Z,69.28
2022-12-19T01:02:21.639Z,69.31
2022-12-19T01:04:53.460Z,69.46
2022-12-19T01:07:25.202Z,69.51
2022-12-19T01:09:56.846Z,69.20
2022-12-19T01:12:46.944Z,69.07
2022-12-19T01:15:21.782Z,69.19
2022-12-19T01:17:53.671Z,69.04
2022-12-19T01:20:29.481Z,69.08
2022-12-19T01:23:01.856Z,69.22
2022-12-19T01:25:33.841Z,69.19
2022-12-19T01:28:09.507Z,69.23
2022-12-19T01:30:43.765Z,69.26
2022-12-19T01:33:18.638Z,69.17
2022-12-19T01:35:50.595Z,69.09
2022-12-19T01:38:22.983Z,69.13
2022-12-19T01:40:57.154Z,69.21
2022-12-19T01:43:32.090Z,69.22
2022-12-19T01:46:07.307Z,69.09
2022-12-19T01:48:43.909Z,69.30
2022-12-19T01:51:19.325Z,69.14
2022-12-19T01:53:54.203Z,69.05
2022-12-19T01:56:30.359Z,69.37
2022-12-19T01:59:07.007Z,69.18
2022-12-19T02:01:51.066Z,69.21
2022-12-19T02:04:24.750Z,69.26
2022-12-19T02:06:58.669Z,69.14
2022-12-19T02:09:30.491Z,69.13
2022-12-19T02:12:03.157Z,69.01
2022-12-19T02:14:35.793Z,69.10
2022-12-19T02:17:14.451Z,69.15
2022-12-19T02:20:14.030Z,69.02
2022-12-19T02:23:05.774Z,68.91
2022-12-19T02:25:55.795Z,68.76
2022-12-19T02:28:45.826Z,69.00
2022-12-19T02:31:23.071Z,69.08
2022-12-19T02:34:01.615Z,68.77
2022-12-19T02:36:40.352Z,68.88
2022-12-19T02:39:20.517Z,68.73
2022-12-19T02:41:56.644Z,68.77
2022-12-19T02:44:34.044Z,68.69
2022-12-19T02:47:08.744Z,68.78
2022-12-19T02:49:41.021Z,68.93
2022-12-19T02:52:15.438Z,68.82
2022-12-19T02:54:48.928Z,68.72
2022-12-19T02:57:26.727Z,68.70
2022-12-19T03:00:14.038Z,68.75
2022-12-19T03:03:00.503Z,68.75
2022-12-19T03:05:41.571Z,68.78
2022-12-19T03:08:27.480Z,68.53
2022-12-19T03:11:02.969Z,68.68
2022-12-19T03:13:39.446Z,68.58
2022-12-19T03:16:13.534Z,68.44
2022-12-19T03:18:45.797Z,68.56
2022-12-19T03:21:21.896Z,68.42
2022-12-19T03:23:56.098Z,68.32
2022-12-19T03:26:33.641Z,68.50
2022-12-19T03:29:10.640Z,68.13
2022-12-19T03:31:43.405Z,68.45
2022-12-19T03:34:20.890Z,68.33
2022-12-19T03:36:56.957Z,68.27
2022-12-19T03:39:31.163Z,68.19
2022-12-19T03:42:23.696Z,68.26
2022-12-19T03:44:56.844Z,68.52
2022-12-19T03:47:34.836Z,68.39
2022-12-19T03:50:13.270Z,68.26
2022-12-19T03:52:54.534Z,68.26
2022-12-19T03:55:33.135Z,68.11
2022-12-19T03:58:10.878Z,68.19
2022-12-19T04:00:49.007Z,68.13
2022-12-19T04:03:22.379Z,68.09
2022-12-19T04:05:55.258Z,68.07
2022-12-19T04:08:27.745Z,67.99
2022-12-19T04:11:05.005Z,68.05
2022-12-19T04:13:39.947Z,68.05
2022-12-19T04:16:19.795Z,68.25
2022-12-19T04:18:59.360Z,68.19
2022-12-19T04:21:37.994Z,68.34
2022-12-19T04:24:15.112Z,68.17
2022-12-19T04:26:49.782Z,68.05
2022-12-19T04:29:22.974Z,68.00
2022-12-19T04:31:55.797Z,68.21
2022-12-19T04:34:27.498Z,68.14
2022-12-19T04:36:59.227Z,68.28
2022-12-19T04:39:31.033Z,67.98
2022-12-19T04:42:02.642Z,68.10
2022-12-19T04:44:34.353Z,68.17
2022-12-19T04:47:06.145Z,68.30
2022-12-19T04:49:37.828Z,68.17
2022-12-19T04:52:09.576Z,68.26
2022-12-19T04:54:41.151Z,68.18
2022-12-19T04:57:12.774Z,68.20
2022-12-19T04:59:44.429Z,68.18
2022-12-19T05:02:16.551Z,68.20
2022-12-19T05:04:49.088Z,68.18
2022-12-19T05:07:20.808Z,68.36
2022-12-19T05:09:52.511Z,68.31
2022-12-19T05:12:24.188Z,68.35
2022-12-19T05:14:55.816Z,68.20
2022-12-19T05:17:27.538Z,68.08
2022-12-19T05:19:59.151Z,68.25
2022-12-19T05:22:30.932Z,68.51
2022-12-19T05:25:02.606Z,68.27
2022-12-19T05:27:34.533Z,68.40
2022-12-19T05:30:09.098Z,68.51
2022-12-19T05:32:47.600Z,68.43
2022-12-19T05:35:19.219Z,68.39
2022-12-19T05:37:51.251Z,68.41
2022-12-19T05:40:27.137Z,68.30
2022-12-19T05:42:58.898Z,68.26
2022-12-19T05:45:30.617Z,68.28
2022-12-19T05:48:02.436Z,68.11
2022-12-19T05:50:34.023Z,68.20
2022-12-19T05:53:06.109Z,68.16
2022-12-19T05:55:37.723Z,68.27
2022-12-19T05:58:09.386Z,68.10
2022-12-19T06:00:41.319Z,68.10
2022-12-19T06:03:13.207Z,68.21
2022-12-19T06:05:44.929Z,68.14
2022-12-19T06:08:16.524Z,68.30
2022-12-19T06:10:48.165Z,68.26
2022-12-19T06:13:24.936Z,67.93
2022-12-19T06:16:01.300Z,68.01
2022-12-19T06:18:33.690Z,68.14
2022-12-19T06:21:07.697Z,68.10
2022-12-19T06:23:39.706Z,68.11
2022-12-19T06:26:18.727Z,68.21
2022-12-19T06:28:52.744Z,68.09
2022-12-19T06:31:26.020Z,68.15
2022-12-19T06:33:58.202Z,68.16
2022-12-19T06:36:31.680Z,68.07
2022-12-19T06:39:06.503Z,68.11
2022-12-19T06:41:55.490Z,68.23
2022-12-19T06:44:27.189Z,68.20
2022-12-19T06:46:58.846Z,68.16
2022-12-19T06:49:30.604Z,68.08
2022-12-19T06:52:07.638Z,67.99
2022-12-19T06:54:41.305Z,68.09
2022-12-19T06:57:13.162Z,68.17
2022-12-19T06:59:44.835Z,68.14
2022-12-19T07:02:27.378Z,68.10
2022-12-19T07:05:04.228Z,67.94
2022-12-19T07:07:36.470Z,67.96
2022-12-19T07:10:25.672Z,67.81
2022-12-19T07:12:57.819Z,67.88
2022-12-19T07:15:31.825Z,67.85
2022-12-19T07:18:05.606Z,67.80
2022-12-19T07:20:45.045Z,67.70
2022-12-19T07:23:22.093Z,67.57
2022-12-19T07:26:08.839Z,67.61
2022-12-19T07:28:40.660Z,67.51
2022-12-19T07:31:12.393Z,67.53
2022-12-19T07:33:44.108Z,67.52
2022-12-19T07:36:15.801Z,67.62
2022-12-19T07:38:47.493Z,67.34
2022-12-19T07:41:19.204Z,67.49
2022-12-19T07:43:50.831Z,67.27
2022-12-19T07:46:22.963Z,67.23
2022-12-19T07:48:54.597Z,67.20
2022-12-19T07:51:26.337Z,67.19
2022-12-19T07:53:58.153Z,67.11
2022-12-19T07:56:30.384Z,67.12
2022-12-19T07:59:02.787Z,67.05
2022-12-19T08:01:34.566Z,67.01
2022-12-19T08:04:06.527Z,66.60
2022-12-19T08:06:41.404Z,66.71
2022-12-19T08:09:13.433Z,66.88
2022-12-19T08:11:47.637Z,66.64
2022-12-19T08:14:22.917Z,66.58
2022-12-19T08:19:46.221Z,66.71
2022-12-19T08:22:18.024Z,66.60
2022-12-19T08:24:49.665Z,66.65
2022-12-19T08:27:21.318Z,66.61
2022-12-19T08:29:53.139Z,66.48
2022-12-19T08:32:24.966Z,66.73
2022-12-19T08:34:57.042Z,66.65
2022-12-19T08:37:28.737Z,66.51
2022-12-19T08:40:01.825Z,66.60
2022-12-19T08:42:33.686Z,66.27
2022-12-19T08:45:06.221Z,66.55
2022-12-19T08:47:37.951Z,66.09
2022-12-19T08:50:15.865Z,66.02
2022-12-19T08:52:48.253Z,66.06
2022-12-19T08:55:20.195Z,66.37
2022-12-19T08:57:50.723Z,66.16
2022-12-19T09:00:23.420Z,65.96
2022-12-19T09:02:56.024Z,66.01
2022-12-19T09:06:03.648Z,66.14
2022-12-19T09:08:19.610Z,65.72
2022-12-19T09:10:51.693Z,65.46
2022-12-19T09:13:23.334Z,65.59
2022-12-19T09:16:04.539Z,65.35
2022-12-19T09:18:37.830Z,65.23
2022-12-19T09:21:10.145Z,65.29
2022-12-19T09:23:43.125Z,65.41
2022-12-19T09:26:17.392Z,65.42
2022-12-19T09:28:50.152Z,65.18
2022-12-19T09:31:33.853Z,65.49
2022-12-19T09:34:06.596Z,65.46
2022-12-19T09:36:38.269Z,65.25
2022-12-19T09:39:11.235Z,65.14
2022-12-19T09:42:02.558Z,65.01
2022-12-19T09:44:45.750Z,65.10
2022-12-19T09:47:21.308Z,64.87
2022-12-19T09:49:56.405Z,65.12
2022-12-19T09:52:34.578Z,65.12
2022-12-19T09:55:16.793Z,64.95
2022-12-19T09:58:12.852Z,64.97
2022-12-19T10:00:59.529Z,64.85
2022-12-19T10:03:40.214Z,64.45
2022-12-19T10:07:11.804Z,64.23
2022-12-19T10:10:59.234Z,64.35
2022-12-19T10:12:45.360Z,63.80
2022-12-19T10:15:27.377Z,63.68
2022-12-19T10:18:15.592Z,64.10
2022-12-19T10:20:54.291Z,63.97
2022-12-19T10:23:50.506Z,64.04
2022-12-19T10:26:30.001Z,63.50
2022-12-19T10:29:18.392Z,63.51
2022-12-19T10:31:58.857Z,63.51
2022-12-19T10:34:38.692Z,63.73
2022-12-19T10:37:29.673Z,63.53
2022-12-19T10:40:27.979Z,63.53
2022-12-19T10:43:10.518Z,63.05
2022-12-19T10:45:48.794Z,62.93
2022-12-19T10:48:30.186Z,63.44
2022-12-19T10:51:06.712Z,62.89
2022-12-19T10:53:38.813Z,62.82
2022-12-19T10:56:23.497Z,62.78
2022-12-19T10:58:59.041Z,63.18
2022-12-19T11:01:34.395Z,63.04
2022-12-19T11:04:25.840Z,63.47
2022-12-19T11:07:18.888Z,63.36
2022-12-19T11:10:17.770Z,63.32
2022-12-19T11:16:35.983Z,63.53
2022-12-19T11:19:23.046Z,63.18
2022-12-19T11:27:30.647Z,63.34
2022-12-19T11:30:08.652Z,63.81
2022-12-19T11:30:45.504Z,63.56
2022-12-19T11:30:46.605Z,63.80
2022-12-19T11:31:58.413Z,63.51
2022-12-19T11:33:27.848Z,63.39
2022-12-19T11:36:02.081Z,63.34
2022-12-19T11:38:40.850Z,62.99
2022-12-19T11:41:17.752Z,62.51
2022-12-19T11:43:55.256Z,62.56
2022-12-19T11:46:35.556Z,62.43
2022-12-19T11:49:26.037Z,62.31
2022-12-19T11:52:04.231Z,62.09
2022-12-19T11:54:44.048Z,62.16
2022-12-19T11:57:15.834Z,61.49
2022-12-19T11:59:48.018Z,61.33
2022-12-19T12:02:48.139Z,62.04
2022-12-19T12:05:34.284Z,61.83
2022-12-19T12:09:53.725Z,61.78
2022-12-19T12:18:13.923Z,61.94
2022-12-19T12:21:38.944Z,62.06
2022-12-19T12:31:07.050Z,62.02
2022-12-19T12:31:11.642Z,62.21
2022-12-19T12:31:38.741Z,61.60
2022-12-19T12:31:44.724Z,62.12
2022-12-19T12:31:58.469Z,61.14
2022-12-19T12:35:35.101Z,61.51
2022-12-19T12:39:16.005Z,61.65
2022-12-19T12:42:07.132Z,61.39
2022-12-19T12:44:45.656Z,61.73
2022-12-19T12:47:22.776Z,61.80
2022-12-19T12:49:58.748Z,61.65
2022-12-19T12:52:35.465Z,61.86
2022-12-19T12:55:15.478Z,61.94
2022-12-19T12:57:47.173Z,61.39
2022-12-19T13:00:33.577Z,61.78
2022-12-19T13:03:12.677Z,61.97
2022-12-19T13:05:54.641Z,61.86
2022-12-19T13:08:36.264Z,61.88
2022-12-19T13:11:33.993Z,62.15
2022-12-19T13:14:06.624Z,62.22
2022-12-19T13:16:55.300Z,61.80
2022-12-19T13:19:29.783Z,62.44
2022-12-19T13:22:38.044Z,62.44
2022-12-19T13:25:40.284Z,62.53
2022-12-19T13:28:37.683Z,62.57
2022-12-19T13:31:23.673Z,62.38
2022-12-19T13:34:17.840Z,62.56
2022-12-19T13:39:49.007Z,62.77
2022-12-19T13:40:11.967Z,62.46
2022-12-19T13:43:16.144Z,62.68
2022-12-19T13:45:55.312Z,62.47
2022-12-19T13:48:32.963Z,62.69
2022-12-19T13:51:08.373Z,62.46
2022-12-19T13:53:41.842Z,62.58
2022-12-19T13:56:17.851Z,62.50
2022-12-19T13:58:52.366Z,62.30
2022-12-19T14:01:28.782Z,62.46
2022-12-19T14:04:07.999Z,62.34
2022-12-19T14:06:45.063Z,62.62
2022-12-19T14:11:26.477Z,62.67
2022-12-19T14:14:01.306Z,62.81
2022-12-19T14:15:38.362Z,62.80
2022-12-19T14:18:44.268Z,62.89
2022-12-19T14:22:04.708Z,62.74
2022-12-19T14:24:20.017Z,62.67
2022-12-19T14:28:26.078Z,62.65
2022-12-19T14:30:27.959Z,62.57
2022-12-19T14:33:40.419Z,62.65
2022-12-19T14:36:11.467Z,62.60
2022-12-19T14:39:19.920Z,62.63
2022-12-19T14:42:02.166Z,62.50
2022-12-19T14:52:07.997Z,62.59
2022-12-19T14:52:08.189Z,62.60
2022-12-19T14:54:15.329Z,62.39
2022-12-19T14:54:46.700Z,62.53
2022-12-19T14:59:27.889Z,62.69
2022-12-19T15:02:03.891Z,62.70
2022-12-19T15:04:50.711Z,62.85
2022-12-19T15:07:28.829Z,63.37
2022-12-19T15:11:03.011Z,63.94
2022-12-19T15:14:47.963Z,64.33
2022-12-19T15:16:28.303Z,64.70
2022-12-19T15:19:02.531Z,64.98
2022-12-19T15:21:34.297Z,65.59
2022-12-19T15:24:06.240Z,65.84
2022-12-19T15:26:47.770Z,66.02
2022-12-19T15:29:22.344Z,66.37
2022-12-19T15:31:54.770Z,66.61
2022-12-19T15:34:41.945Z,66.59
2022-12-19T15:37:20.405Z,67.32
2022-12-19T15:39:52.311Z,67.21
2022-12-19T15:42:27.239Z,67.57
2022-12-19T15:45:01.147Z,67.69
2022-12-19T15:47:35.040Z,68.02
2022-12-19T15:50:18.841Z,68.29
2022-12-19T15:52:59.926Z,68.46
2022-12-19T15:55:33.012Z,68.71
2022-12-19T15:58:07.955Z,69.12
2022-12-19T16:00:41.374Z,69.09
2022-12-19T16:03:23.165Z,69.27
2022-12-19T16:05:56.252Z,69.34
2022-12-19T16:08:28.627Z,69.32
2022-12-19T16:11:02.210Z,70.48
2022-12-19T16:13:35.986Z,70.00
2022-12-19T16:16:15.339Z,70.69
2022-12-19T16:18:47.607Z,70.85
2022-12-19T16:21:29.635Z,70.86
2022-12-19T16:24:05.903Z,71.46
2022-12-19T16:26:41.526Z,71.10
2022-12-19T16:29:20.631Z,71.22
2022-12-19T16:31:52.424Z,71.71
2022-12-19T16:34:26.421Z,71.40
2022-12-19T16:36:58.134Z,72.71
2022-12-19T16:39:30.161Z,71.85
2022-12-19T16:42:01.948Z,72.53
2022-12-19T16:44:35.983Z,71.92
2022-12-19T16:47:14.445Z,72.67
2022-12-19T16:49:46.481Z,72.53
2022-12-19T16:52:18.069Z,72.86
2022-12-19T16:54:51.125Z,73.61
2022-12-19T16:57:23.797Z,72.92
2022-12-19T16:59:55.466Z,73.47
2022-12-19T17:02:43.836Z,73.26
2022-12-19T17:05:24.238Z,73.18
2022-12-19T17:07:56.919Z,73.72
2022-12-19T17:10:34.263Z,73.86
2022-12-19T17:13:06.219Z,73.58
2022-12-19T17:15:38.975Z,73.88
2022-12-19T17:18:17.464Z,73.99
2022-12-19T17:20:49.199Z,73.86
2022-12-19T17:23:22.066Z,73.53
2022-12-19T17:25:54.945Z,73.92
2022-12-19T17:28:27.144Z,74.39
2022-12-19T17:31:03.435Z,74.54
2022-12-19T17:33:37.758Z,74.32
2022-12-19T17:36:15.401Z,74.74
2022-12-19T17:38:48.814Z,74.67
2022-12-19T17:41:20.491Z,74.84
2022-12-19T17:43:52.747Z,75.22
2022-12-19T17:46:26.281Z,75.08
2022-12-19T17:48:58.038Z,75.65
2022-12-19T17:51:29.708Z,75.95
2022-12-19T17:54:01.287Z,75.55
2022-12-19T17:56:32.960Z,75.90
2022-12-19T17:59:04.572Z,75.61
2022-12-19T18:01:38.445Z,75.95
2022-12-19T18:04:15.501Z,75.36
2022-12-19T18:06:47.212Z,76.20
2022-12-19T18:09:23.576Z,76.04
2022-12-19T18:11:55.292Z,76.27
2022-12-19T18:14:26.991Z,76.13
2022-12-19T18:16:59.765Z,76.38
2022-12-19T18:19:35.183Z,75.94
2022-12-19T18:22:07.917Z,76.64
2022-12-19T18:24:39.504Z,76.96
2022-12-19T18:27:11.232Z,76.57
2022-12-19T18:29:42.830Z,77.12
2022-12-19T18:32:19.295Z,76.86
2022-12-19T18:34:51.096Z,76.69
2022-12-19T18:37:22.779Z,76.89
2022-12-19T18:39:55.724Z,77.22
2022-12-19T18:42:27.475Z,77.19
2022-12-19T18:44:59.091Z,77.05
2022-12-19T18:47:30.827Z,77.67
2022-12-19T18:50:02.441Z,77.62
2022-12-19T18:52:34.079Z,77.41
2022-12-19T18:55:13.466Z,77.28
2022-12-19T18:57:45.249Z,77.43
2022-12-19T19:00:19.819Z,78.09
2022-12-19T19:02:54.786Z,77.96
2022-12-19T19:05:29.532Z,77.56
2022-12-19T19:08:10.848Z,77.99
2022-12-19T19:10:42.447Z,78.27
2022-12-19T19:13:14.361Z,78.60
2022-12-19T19:15:50.041Z,78.47
2022-12-19T19:18:25.761Z,78.15
2022-12-19T19:21:01.286Z,78.14
2022-12-19T19:23:37.574Z,78.28
2022-12-19T19:26:10.027Z,78.72
2022-12-19T19:28:43.107Z,78.06
2022-12-19T19:31:18.930Z,78.26
2022-12-19T19:33:55.010Z,78.45
2022-12-19T19:36:30.860Z,78.77
2022-12-19T19:39:04.188Z,78.78
2022-12-19T19:41:35.856Z,78.58
2022-12-19T19:44:07.671Z,79.01
2022-12-19T19:46:39.327Z,78.71
2022-12-19T19:49:11.052Z,78.79
2022-12-19T19:51:42.730Z,78.86
2022-12-19T19:54:14.478Z,78.96
2022-12-19T19:56:46.122Z,79.20
2022-12-19T19:59:17.773Z,78.81
2022-12-19T20:01:54.268Z,78.81
2022-12-19T20:04:26.196Z,78.58
2022-12-19T20:06:57.946Z,79.09
2022-12-19T20:09:30.067Z,79.23
2022-12-19T20:12:01.847Z,78.93
2022-12-19T20:14:33.594Z,79.20
2022-12-19T20:17:05.243Z,79.03
2022-12-19T20:19:37.028Z,79.11
2022-12-19T20:22:08.808Z,79.13
2022-12-19T20:24:40.459Z,79.25
2022-12-19T20:27:12.097Z,79.08
2022-12-19T20:29:43.932Z,79.03
2022-12-19T20:32:15.804Z,78.86
2022-12-19T20:34:47.490Z,79.30
2022-12-19T20:37:19.214Z,78.82
2022-12-19T20:39:50.805Z,79.17
2022-12-19T20:42:22.442Z,79.07
2022-12-19T20:44:54.535Z,79.33
2022-12-19T20:47:26.981Z,79.00
2022-12-19T20:49:58.657Z,79.06
2022-12-19T20:52:31.022Z,79.37
2022-12-19T20:55:02.639Z,79.02
2022-12-19T20:57:34.327Z,79.31
2022-12-19T21:05:58.726Z,78.96
2022-12-19T21:08:30.829Z,79.44
2022-12-19T21:11:04.255Z,79.03
2022-12-19T21:13:36.953Z,79.07
2022-12-19T21:16:10.714Z,78.97
2022-12-19T21:18:44.409Z,78.95
2022-12-19T21:21:18.390Z,79.15
2022-12-19T21:23:50.859Z,79.16
2022-12-19T21:26:23.035Z,79.33
2022-12-19T21:28:57.875Z,79.23
2022-12-19T21:31:31.281Z,79.55
2022-12-19T21:34:04.242Z,79.41
2022-12-19T21:36:36.923Z,79.31
2022-12-19T21:39:08.549Z,79.31
2022-12-19T21:41:40.244Z,79.53
2022-12-19T21:44:11.933Z,79.33
2022-12-19T21:46:43.737Z,79.07
2022-12-19T21:49:15.397Z,79.35
2022-12-19T21:51:46.974Z,79.75
2022-12-19T21:54:18.636Z,79.47
2022-12-19T21:56:50.279Z,79.43
2022-12-19T21:59:21.945Z,79.48
2022-12-19T22:01:53.809Z,79.75
2022-12-19T22:04:27.539Z,79.76
2022-12-19T22:06:59.115Z,79.34
2022-12-19T22:09:30.725Z,79.47
2022-12-19T22:12:02.498Z,79.37
2022-12-19T22:14:34.300Z,79.56
2022-12-19T22:17:06.731Z,79.55
2022-12-19T22:19:38.379Z,79.39
2022-12-19T22:22:10.327Z,79.43
2022-12-19T22:24:42.023Z,79.36
2022-12-19T22:27:13.772Z,79.21
2022-12-19T22:29:45.480Z,79.12
2022-12-19T22:32:18.223Z,79.05
2022-12-19T22:34:51.233Z,79.32
2022-12-19T22:37:22.988Z,79.22
2022-12-19T22:39:56.101Z,79.34
2022-12-19T22:42:28.329Z,79.33
2022-12-19T22:45:00.546Z,79.35
2022-12-19T22:47:32.235Z,79.22
2022-12-19T22:50:03.888Z,79.29
2022-12-19T22:52:35.519Z,79.35
2022-12-19T22:55:08.597Z,79.38
2022-12-19T22:57:40.895Z,79.46
2022-12-19T23:00:15.302Z,79.47
2022-12-19T23:02:47.043Z,79.32
2022-12-19T23:05:19.104Z,79.45
2022-12-19T23:07:50.817Z,79.43
2022-12-19T23:10:26.286Z,79.31
2022-12-19T23:12:58.050Z,79.37
2022-12-19T23:15:29.806Z,79.20
2022-12-19T23:18:01.467Z,79.49
2022-12-19T23:20:33.123Z,79.45
2022-12-19T23:23:05.247Z,79.53
2022-12-19T23:25:41.601Z,79.49
2022-12-19T23:28:13.281Z,79.46
2022-12-19T23:30:44.871Z,79.38
2022-12-19T23:33:16.618Z,79.39
2022-12-19T23:35:48.192Z,79.30
2022-12-19T23:38:19.861Z,79.36
2022-12-19T23:40:51.460Z,79.27
2022-12-19T23:43:23.200Z,79.16
2022-12-19T23:45:55.019Z,79.56
2022-12-19T23:48:28.518Z,79.45
2022-12-19T23:51:05.255Z,79.42
2022-12-19T23:53:37.710Z,79.53
2022-12-19T23:56:13.685Z,79.43
2022-12-19T23:58:46.743Z,79.46
